Time;durP1;ratioP1;P1;durP2;ratioP2;P2;SDS_P1;SDS_P2;PMS_P1;PMS_P2;Temp;Humidity;BMP_temperature;BMP_pressure;BME280_temperature;BME280_humidity;BME280_pressure;Samples;Min_cycle;Max_cycle;Signal;HPM_P1;HPM_P2
2022/03/01 00:01:52;;;;;;;11.57;7.00;;;2.20;99.90;;;;;;5068825;28;20040;-81
2022/03/01 00:04:19;;;;;;;15.35;8.23;;;2.50;99.90;;;;;;5067471;28;20094;-81
2022/03/01 00:06:45;;;;;;;12.25;7.53;;;2.50;99.90;;;;;;5068504;28;20055;-81
2022/03/01 00:09:11;;;;;;;12.07;7.18;;;2.10;99.90;;;;;;5067378;28;20407;-82
2022/03/01 00:11:38;;;;;;;12.13;7.22;;;2.40;99.90;;;;;;5066911;28;20040;-82
2022/03/01 00:14:04;;;;;;;16.70;7.50;;;2.10;99.90;;;;;;5069200;28;20517;-80
2022/03/01 00:16:30;;;;;;;13.70;7.72;;;2.10;99.90;;;;;;5067077;28;20047;-80
2022/03/01 00:18:57;;;;;;;16.30;8.07;;;2.10;99.90;;;;;;5067860;28;20056;-80
2022/03/01 00:21:24;;;;;;;15.55;8.18;;;2.10;99.90;;;;;;5066893;28;20097;-81
2022/03/01 00:23:50;;;;;;;13.55;7.60;;;2.20;99.90;;;;;;5066473;28;20053;-81
2022/03/01 00:26:16;;;;;;;15.18;7.95;;;3.00;99.90;;;;;;5067419;28;20055;-81
2022/03/01 00:28:42;;;;;;;15.88;7.80;;;2.10;99.90;;;;;;5050091;28;20044;-81
2022/03/01 00:31:08;;;;;;;11.93;7.63;;;2.10;99.90;;;;;;5050793;28;20049;-81
2022/03/01 00:33:33;;;;;;;17.98;9.25;;;2.10;99.90;;;;;;5066258;28;20087;-81
2022/03/01 00:36:00;;;;;;;14.93;8.35;;;2.10;99.90;;;;;;5068479;28;20071;-80
2022/03/01 00:38:26;;;;;;;13.45;8.32;;;2.00;99.90;;;;;;5068048;28;20060;-81
2022/03/01 00:40:51;;;;;;;13.88;7.43;;;2.80;99.90;;;;;;5049726;28;20428;-81
2022/03/01 00:43:17;;;;;;;14.20;8.23;;;2.00;99.90;;;;;;5067983;28;20428;-81
2022/03/01 00:45:43;;;;;;;17.92;7.15;;;2.00;99.90;;;;;;5065547;28;20094;-81
2022/03/01 00:48:09;;;;;;;13.93;7.55;;;1.90;99.90;;;;;;5067095;28;20416;-81
2022/03/01 00:50:34;;;;;;;15.20;8.13;;;1.90;99.90;;;;;;5049285;28;20045;-81
2022/03/01 00:53:00;;;;;;;14.10;7.50;;;1.90;99.90;;;;;;5066984;28;20044;-81
2022/03/01 00:55:26;;;;;;;12.90;7.18;;;2.30;99.90;;;;;;5067853;28;20037;-81
2022/03/01 00:57:52;;;;;;;12.52;7.43;;;1.90;99.90;;;;;;5066066;28;20516;-81
2022/03/01 01:00:18;;;;;;;13.45;8.15;;;1.90;99.90;;;;;;5066390;28;20083;-81
2022/03/01 01:02:44;;;;;;;19.58;8.90;;;1.80;99.90;;;;;;5065727;28;20105;-81
2022/03/01 01:05:10;;;;;;;15.45;8.50;;;1.80;99.90;;;;;;5066580;28;20049;-81
2022/03/01 01:07:36;;;;;;;13.73;8.05;;;1.70;99.90;;;;;;5049029;28;20041;-81
2022/03/01 01:10:04;;;;;;;12.63;7.15;;;1.70;99.90;;;;;;5066757;28;20182;-81
2022/03/01 01:12:30;;;;;;;16.25;8.40;;;1.70;99.90;;;;;;5066366;28;20067;-81
2022/03/01 01:14:56;;;;;;;15.07;7.93;;;1.60;99.90;;;;;;5065661;28;20518;-81
2022/03/01 01:17:21;;;;;;;15.88;8.85;;;1.60;99.90;;;;;;5049324;28;20060;-81
2022/03/01 01:19:47;;;;;;;19.52;7.47;;;1.60;99.90;;;;;;5065412;28;20045;-81
2022/03/01 01:24:57;;;;;;;12.68;8.30;;;1.60;99.90;;;;;;5065443;28;20178;-81
2022/03/01 01:27:23;;;;;;;14.27;7.97;;;1.60;99.90;;;;;;5066193;28;20127;-81
2022/03/01 01:29:48;;;;;;;11.48;6.70;;;1.50;99.90;;;;;;5048823;28;20053;-81
2022/03/01 01:32:14;;;;;;;12.02;7.32;;;1.50;99.90;;;;;;5048459;28;20045;-81
2022/03/01 01:34:40;;;;;;;16.13;8.98;;;1.50;99.90;;;;;;5067213;28;20056;-81
2022/03/01 01:37:06;;;;;;;13.57;7.78;;;1.50;99.90;;;;;;5048484;28;20044;-80
2022/03/01 01:39:32;;;;;;;13.43;8.23;;;1.50;99.90;;;;;;5067850;28;20048;-80
2022/03/01 01:41:57;;;;;;;15.35;7.60;;;1.50;99.90;;;;;;5065426;28;20079;-81
2022/03/01 01:44:23;;;;;;;18.05;7.80;;;1.50;99.90;;;;;;5067555;28;20041;-81
2022/03/01 01:46:49;;;;;;;14.23;8.18;;;1.50;99.90;;;;;;5065168;28;20048;-80
2022/03/01 01:49:15;;;;;;;11.50;6.95;;;1.40;99.90;;;;;;5064947;28;20080;-81
2022/03/01 01:51:40;;;;;;;11.57;7.57;;;1.40;99.90;;;;;;5065291;28;20083;-80
2022/03/01 01:54:06;;;;;;;15.20;7.25;;;1.40;99.90;;;;;;5048162;28;20090;-80
2022/03/01 01:56:33;;;;;;;16.52;7.65;;;1.90;99.90;;;;;;5065630;28;20040;-81
2022/03/01 01:58:58;;;;;;;15.52;8.82;;;1.30;99.90;;;;;;5064616;28;20135;-81
2022/03/01 02:01:24;;;;;;;12.75;7.75;;;1.30;99.90;;;;;;5049291;28;20123;-80
2022/03/01 02:03:50;;;;;;;14.77;7.97;;;1.20;99.90;;;;;;5048540;28;20040;-81
2022/03/01 02:06:15;;;;;;;13.60;7.82;;;1.20;99.90;;;;;;5066523;28;20396;-81
2022/03/01 02:08:41;;;;;;;16.63;8.40;;;1.20;99.90;;;;;;5065173;28;20056;-81
2022/03/01 02:11:08;;;;;;;12.18;7.65;;;1.10;99.90;;;;;;5065843;28;20047;-81
2022/03/01 02:13:34;;;;;;;13.75;7.70;;;1.10;99.90;;;;;;5049049;28;20048;-81
2022/03/01 02:15:59;;;;;;;13.23;7.57;;;1.10;99.90;;;;;;5047928;28;20050;-81
2022/03/01 02:18:25;;;;;;;18.10;8.68;;;1.10;99.90;;;;;;5065958;28;20040;-81
2022/03/01 02:20:51;;;;;;;14.50;8.10;;;1.00;99.90;;;;;;5066534;28;20074;-81
2022/03/01 02:23:17;;;;;;;16.60;8.40;;;1.10;99.90;;;;;;5069780;28;20045;-81
2022/03/01 02:25:43;;;;;;;13.73;8.43;;;1.00;99.90;;;;;;5074658;28;20068;-82
2022/03/01 02:28:08;;;;;;;12.20;7.38;;;1.00;99.90;;;;;;5066140;28;20120;-81
2022/03/01 02:30:34;;;;;;;14.18;8.02;;;0.90;99.90;;;;;;5048505;28;20040;-81
2022/03/01 02:33:01;;;;;;;13.27;8.13;;;1.00;99.90;;;;;;5047919;28;20145;-80
2022/03/01 02:35:27;;;;;;;18.83;8.27;;;0.90;99.90;;;;;;5066454;28;20113;-79
2022/03/01 02:37:53;;;;;;;12.50;7.28;;;1.90;99.90;;;;;;5066064;28;20040;-81
2022/03/01 02:40:19;;;;;;;15.02;8.52;;;0.90;99.90;;;;;;5064573;28;20063;-80
2022/03/01 02:42:47;;;;;;;13.63;7.93;;;0.90;99.90;;;;;;5064736;28;20048;-80
2022/03/01 02:45:15;;;;;;;12.10;7.80;;;0.90;99.90;;;;;;5064434;28;20511;-80
2022/03/01 02:47:41;;;;;;;12.23;7.85;;;0.90;99.90;;;;;;5048346;28;20573;-80
2022/03/01 02:50:08;;;;;;;14.85;8.98;;;0.90;99.90;;;;;;5065452;28;20041;-80
2022/03/01 02:52:34;;;;;;;15.00;7.60;;;0.90;99.90;;;;;;5066859;28;20562;-80
2022/03/01 02:55:01;;;;;;;13.68;7.03;;;0.90;99.90;;;;;;5064631;28;20435;-80
2022/03/01 02:57:27;;;;;;;17.67;8.70;;;0.90;99.90;;;;;;5064456;28;20106;-81
2022/03/01 02:59:53;;;;;;;15.82;7.75;;;0.90;99.90;;;;;;5064463;28;20077;-81
2022/03/01 03:02:19;;;;;;;16.13;8.27;;;0.90;99.90;;;;;;5031172;28;20097;-81
2022/03/01 03:04:45;;;;;;;15.43;8.05;;;0.90;99.90;;;;;;5048270;28;20053;-81
2022/03/01 03:07:12;;;;;;;15.80;7.88;;;0.90;99.90;;;;;;5065970;28;20044;-80
2022/03/01 03:09:38;;;;;;;14.75;7.85;;;0.80;99.90;;;;;;5068950;28;20051;-81
2022/03/01 03:12:05;;;;;;;15.98;7.97;;;0.80;99.90;;;;;;5069431;28;20044;-80
2022/03/01 03:14:30;;;;;;;15.77;7.93;;;0.90;99.90;;;;;;5069949;28;20044;-80
2022/03/01 03:16:57;;;;;;;14.88;9.05;;;1.40;99.90;;;;;;5070308;28;20040;-80
2022/03/01 03:19:24;;;;;;;16.27;8.32;;;0.90;99.90;;;;;;5069125;28;20048;-80
2022/03/01 03:21:50;;;;;;;14.77;7.70;;;0.90;99.90;;;;;;5069854;28;20526;-80
2022/03/01 03:24:16;;;;;;;16.70;8.13;;;1.20;99.90;;;;;;5068781;28;20530;-80
2022/03/01 03:26:42;;;;;;;14.60;8.05;;;1.00;99.90;;;;;;5070409;28;20076;-81
2022/03/01 03:29:09;;;;;;;14.43;8.20;;;1.00;99.90;;;;;;5069075;28;20166;-81
2022/03/01 03:31:40;;;;;;;14.77;8.00;;;1.10;99.90;;;;;;5068434;28;20037;-81
2022/03/01 03:34:08;;;;;;;16.67;8.65;;;1.10;99.90;;;;;;5069514;28;20048;-81
2022/03/01 03:36:37;;;;;;;14.27;7.97;;;1.10;99.90;;;;;;5068796;28;20086;-81
2022/03/01 03:39:05;;;;;;;11.82;8.10;;;1.20;99.90;;;;;;5070059;28;20101;-81
2022/03/01 03:41:31;;;;;;;16.17;8.90;;;1.20;99.90;;;;;;5067389;28;20040;-81
2022/03/01 03:43:59;;;;;;;15.20;8.25;;;0.00;99.90;;;;;;5069877;28;20052;-81
2022/03/01 03:46:25;;;;;;;11.90;7.28;;;2.30;99.90;;;;;;5067300;28;20048;-81
2022/03/01 03:48:52;;;;;;;18.88;8.15;;;1.30;99.90;;;;;;5067380;28;20052;-80
2022/03/01 03:51:19;;;;;;;15.05;8.18;;;1.40;99.90;;;;;;5067563;28;20053;-80
2022/03/01 03:53:44;;;;;;;17.20;8.45;;;1.40;99.90;;;;;;5050790;28;20662;-80
2022/03/01 03:56:10;;;;;;;13.77;8.68;;;1.40;99.90;;;;;;5068262;28;20467;-81
2022/03/01 03:58:36;;;;;;;16.38;7.75;;;1.70;99.90;;;;;;5050220;28;20129;-81
2022/03/01 04:01:02;;;;;;;15.82;9.00;;;1.70;99.90;;;;;;5068211;28;20036;-80
2022/03/01 04:03:28;;;;;;;13.23;7.45;;;1.40;99.90;;;;;;5068580;28;20049;-81
2022/03/01 04:05:56;;;;;;;14.65;8.05;;;1.40;99.90;;;;;;5067645;28;20073;-81
2022/03/01 04:08:22;;;;;;;15.10;8.23;;;1.40;99.90;;;;;;5068644;28;20221;-81
2022/03/01 04:10:48;;;;;;;15.45;7.55;;;1.40;99.90;;;;;;5068295;28;20170;-81
2022/03/01 04:13:14;;;;;;;17.80;8.57;;;1.40;99.90;;;;;;5051062;28;20412;-81
2022/03/01 04:15:40;;;;;;;16.17;8.55;;;1.40;99.90;;;;;;5066847;28;20071;-81
2022/03/01 04:18:06;;;;;;;16.80;8.63;;;1.40;99.90;;;;;;5034554;28;20087;-81
2022/03/01 04:20:32;;;;;;;14.70;8.38;;;1.40;99.90;;;;;;5066541;28;20072;-81
2022/03/01 04:22:58;;;;;;;14.80;8.38;;;1.40;99.90;;;;;;5067449;28;20076;-81
2022/03/01 04:25:24;;;;;;;14.43;8.32;;;1.40;99.90;;;;;;5051352;28;20149;-81
2022/03/01 04:27:51;;;;;;;15.38;8.05;;;1.40;99.90;;;;;;5066988;28;20080;-82
2022/03/01 04:30:17;;;;;;;17.38;8.07;;;1.40;99.90;;;;;;5052526;28;20048;-81
2022/03/01 04:32:45;;;;;;;17.25;8.73;;;1.40;99.90;;;;;;5034380;28;20052;-81
2022/03/01 04:35:12;;;;;;;14.82;8.07;;;1.40;99.90;;;;;;5050725;28;20110;-81
2022/03/01 04:37:39;;;;;;;15.25;8.35;;;1.50;99.90;;;;;;5066755;28;20290;-81
2022/03/01 04:40:06;;;;;;;19.38;8.52;;;1.50;99.90;;;;;;5066921;28;20056;-81
2022/03/01 04:42:32;;;;;;;16.52;7.32;;;1.60;99.90;;;;;;5067194;28;20511;-80
2022/03/01 04:44:59;;;;;;;16.40;7.22;;;1.60;99.90;;;;;;5066572;28;20452;-80
2022/03/01 04:47:25;;;;;;;11.45;6.90;;;1.70;99.90;;;;;;5067364;28;20044;-81
2022/03/01 04:49:51;;;;;;;19.23;7.07;;;1.70;99.90;;;;;;5067781;28;20169;-81
2022/03/01 04:52:17;;;;;;;14.80;7.72;;;1.80;99.90;;;;;;5067783;28;20408;-81
2022/03/01 04:54:43;;;;;;;13.25;8.05;;;1.90;99.90;;;;;;5066113;28;20048;-80
2022/03/01 04:57:09;;;;;;;11.18;6.60;;;2.00;99.90;;;;;;5066347;28;20241;-81
2022/03/01 04:59:35;;;;;;;15.02;7.75;;;2.00;99.90;;;;;;5066387;28;20052;-80
2022/03/01 05:02:01;;;;;;;14.63;7.38;;;2.10;99.90;;;;;;5049875;28;20161;-81
2022/03/01 05:04:27;;;;;;;16.05;7.38;;;2.10;99.90;;;;;;5066890;28;20075;-80
2022/03/01 05:06:54;;;;;;;12.73;7.85;;;2.10;99.90;;;;;;5065571;28;20080;-80
2022/03/01 05:09:21;;;;;;;11.27;6.82;;;2.20;99.90;;;;;;5067020;28;20075;-81
2022/03/01 05:11:50;;;;;;;13.18;6.35;;;2.20;99.90;;;;;;5065491;28;20127;-80
2022/03/01 05:14:17;;;;;;;14.48;7.25;;;2.20;99.90;;;;;;5066106;28;20045;-81
2022/03/01 05:16:43;;;;;;;14.32;8.45;;;2.30;99.90;;;;;;5066212;28;20585;-82
2022/03/01 05:19:09;;;;;;;14.27;7.18;;;2.30;99.90;;;;;;5048769;28;20044;-82
2022/03/01 05:21:36;;;;;;;10.23;7.13;;;2.30;99.90;;;;;;5050198;28;20127;-81
2022/03/01 05:24:02;;;;;;;13.15;7.28;;;2.40;99.90;;;;;;5049223;28;20380;-81
2022/03/01 05:26:28;;;;;;;14.27;6.88;;;2.40;99.90;;;;;;5066471;28;20135;-82
2022/03/01 05:28:55;;;;;;;13.32;7.22;;;2.40;99.90;;;;;;5016080;28;20131;-82
2022/03/01 05:31:20;;;;;;;13.52;6.63;;;2.40;99.90;;;;;;5065488;28;20044;-81
2022/03/01 05:33:47;;;;;;;15.82;7.57;;;2.50;99.90;;;;;;5065756;28;20044;-82
2022/03/01 05:36:14;;;;;;;15.32;7.07;;;2.50;99.90;;;;;;5066234;28;20171;-81
2022/03/01 05:38:41;;;;;;;13.70;7.38;;;2.50;99.90;;;;;;5049240;28;20044;-84
2022/03/01 05:41:08;;;;;;;11.27;7.00;;;2.60;99.90;;;;;;5065127;28;20049;-83
2022/03/01 05:43:35;;;;;;;17.80;8.13;;;2.60;99.90;;;;;;5049633;28;20048;-83
2022/03/01 05:46:01;;;;;;;13.27;7.10;;;2.60;99.90;;;;;;5048665;28;20040;-84
2022/03/01 05:48:27;;;;;;;15.35;6.97;;;2.60;99.90;;;;;;5066317;28;20187;-83
2022/03/01 05:50:53;;;;;;;14.15;6.38;;;2.60;99.90;;;;;;5065153;28;20058;-81
2022/03/01 05:53:19;;;;;;;11.95;7.43;;;2.60;99.90;;;;;;5031554;28;20041;-79
2022/03/01 05:55:45;;;;;;;15.52;7.28;;;2.60;99.90;;;;;;5066197;28;20109;-82
2022/03/01 05:58:11;;;;;;;17.58;7.45;;;2.60;99.90;;;;;;5047646;28;20358;-83
2022/03/01 06:00:37;;;;;;;12.30;7.53;;;2.60;99.90;;;;;;5066170;28;20138;-81
2022/03/01 06:03:03;;;;;;;12.70;6.90;;;2.70;99.90;;;;;;5031820;28;20080;-79
2022/03/01 06:05:30;;;;;;;10.50;6.57;;;2.70;99.90;;;;;;5032254;28;20411;-79
2022/03/01 06:07:56;;;;;;;14.90;6.68;;;2.80;99.90;;;;;;5031794;28;20044;-80
2022/03/01 06:10:22;;;;;;;13.63;6.70;;;2.80;99.90;;;;;;5047615;28;20055;-79
2022/03/01 06:12:48;;;;;;;19.08;7.38;;;2.80;99.90;;;;;;5065355;28;20369;-78
2022/03/01 06:15:14;;;;;;;16.65;7.82;;;3.10;99.90;;;;;;5064574;28;20040;-78
2022/03/01 06:17:39;;;;;;;17.40;7.50;;;2.90;99.90;;;;;;5065804;28;20048;-79
2022/03/01 06:20:06;;;;;;;13.15;7.93;;;2.90;99.90;;;;;;5065067;28;20128;-79
2022/03/01 06:22:32;;;;;;;13.00;7.50;;;2.90;99.90;;;;;;5064971;28;20040;-80
2022/03/01 06:24:58;;;;;;;14.82;6.75;;;2.90;99.90;;;;;;5047837;28;20143;-79
2022/03/01 06:27:24;;;;;;;13.80;7.43;;;2.90;99.90;;;;;;5064460;28;20484;-79
2022/03/01 06:29:50;;;;;;;14.52;7.45;;;2.90;99.90;;;;;;5065183;28;20554;-79
2022/03/01 06:32:16;;;;;;;16.67;6.72;;;2.90;99.90;;;;;;5047375;28;20400;-80
2022/03/01 06:34:42;;;;;;;12.07;7.05;;;3.00;99.90;;;;;;5065495;28;20123;-80
2022/03/01 06:37:12;;;;;;;15.30;7.80;;;2.90;99.90;;;;;;5047733;28;20056;-80
2022/03/01 06:39:43;;;;;;;17.58;8.80;;;2.90;99.90;;;;;;5049105;28;20040;-79
2022/03/01 06:42:10;;;;;;;12.18;7.55;;;2.90;99.90;;;;;;5030123;28;20181;-79
2022/03/01 06:44:36;;;;;;;16.60;7.82;;;3.00;99.90;;;;;;5031057;28;20045;-80
2022/03/01 06:47:03;;;;;;;20.17;7.72;;;3.00;99.90;;;;;;5065243;28;20043;-79
2022/03/01 06:49:29;;;;;;;21.75;7.32;;;3.00;99.90;;;;;;5063663;28;20117;-79
2022/03/01 06:51:55;;;;;;;12.85;8.25;;;3.00;99.90;;;;;;5048631;28;20044;-79
2022/03/01 06:54:20;;;;;;;17.17;8.32;;;3.10;99.90;;;;;;5047058;28;20118;-80
2022/03/01 06:56:47;;;;;;;13.73;7.57;;;3.10;99.90;;;;;;5048284;28;20047;-79
2022/03/01 06:59:14;;;;;;;14.10;7.03;;;3.10;99.90;;;;;;5064775;28;20052;-80
2022/03/01 07:01:40;;;;;;;22.67;9.35;;;3.10;99.90;;;;;;5064439;28;20377;-80
2022/03/01 07:04:06;;;;;;;12.02;7.22;;;3.00;99.90;;;;;;5048257;28;20048;-80
2022/03/01 07:06:31;;;;;;;14.93;8.15;;;3.10;99.90;;;;;;5064334;28;20083;-79
2022/03/01 07:08:57;;;;;;;11.35;6.90;;;3.10;99.90;;;;;;5065450;28;20036;-79
2022/03/01 07:11:23;;;;;;;13.35;8.38;;;3.20;99.90;;;;;;5047545;28;20040;-80
2022/03/01 07:13:49;;;;;;;15.45;7.72;;;3.20;99.90;;;;;;5048553;28;20385;-79
2022/03/01 07:16:15;;;;;;;23.13;8.10;;;3.20;99.90;;;;;;5047121;28;20487;-79
2022/03/01 07:18:42;;;;;;;14.95;7.75;;;3.30;99.90;;;;;;5064092;28;20105;-80
2022/03/01 07:21:08;;;;;;;23.02;9.00;;;3.40;99.90;;;;;;5047870;28;20055;-80
2022/03/01 07:23:34;;;;;;;14.23;8.02;;;3.40;99.90;;;;;;5046960;28;20041;-79
2022/03/01 07:26:01;;;;;;;15.43;8.63;;;3.50;99.90;;;;;;5065197;28;20084;-79
2022/03/01 07:28:28;;;;;;;17.38;7.55;;;3.50;99.90;;;;;;5030849;28;20076;-79
2022/03/01 07:30:55;;;;;;;20.10;7.25;;;3.50;99.90;;;;;;5064517;28;20049;-79
2022/03/01 07:33:20;;;;;;;15.75;8.07;;;5.00;99.90;;;;;;5047573;28;20055;-78
2022/03/01 07:35:46;;;;;;;24.00;9.05;;;3.60;99.90;;;;;;5047286;28;20471;-80
2022/03/01 07:38:12;;;;;;;18.50;8.68;;;3.70;99.90;;;;;;5064179;28;20047;-80
2022/03/01 07:40:38;;;;;;;18.15;7.85;;;3.80;99.90;;;;;;5063428;28;20056;-79
2022/03/01 07:43:04;;;;;;;15.88;7.38;;;3.80;99.90;;;;;;5031478;28;20473;-79
2022/03/01 07:45:29;;;;;;;17.85;6.93;;;3.90;99.90;;;;;;5062825;28;20078;-79
2022/03/01 07:47:57;;;;;;;12.25;7.32;;;4.00;99.90;;;;;;5064883;28;20082;-78
2022/03/01 07:50:23;;;;;;;16.17;7.30;;;4.00;99.90;;;;;;5063198;28;20561;-78
2022/03/01 07:52:48;;;;;;;22.08;7.15;;;5.00;99.90;;;;;;5064067;28;20049;-78
2022/03/01 07:55:14;;;;;;;15.93;8.23;;;4.90;99.90;;;;;;5069148;28;20090;-78
2022/03/01 07:57:41;;;;;;;14.15;7.63;;;4.10;99.90;;;;;;5050593;28;20044;-79
2022/03/01 08:00:09;;;;;;;16.65;7.95;;;4.10;99.90;;;;;;5068269;28;20044;-78
2022/03/01 08:02:36;;;;;;;25.05;7.80;;;4.20;99.90;;;;;;5050519;28;20403;-78
2022/03/01 08:05:03;;;;;;;17.17;7.22;;;4.20;99.90;;;;;;5051207;28;20037;-78
2022/03/01 08:07:28;;;;;;;16.50;8.00;;;4.20;99.90;;;;;;5066904;28;20044;-78
2022/03/01 08:09:54;;;;;;;17.48;7.75;;;4.30;99.90;;;;;;5050737;28;20045;-78
2022/03/01 08:12:20;;;;;;;14.40;8.20;;;4.30;99.90;;;;;;5050683;28;20041;-78
2022/03/01 08:14:46;;;;;;;17.52;8.48;;;4.40;99.80;;;;;;5049696;28;20052;-78
2022/03/01 08:17:11;;;;;;;21.05;8.38;;;4.30;99.60;;;;;;5051086;28;20071;-78
2022/03/01 08:19:37;;;;;;;18.40;8.20;;;4.40;99.10;;;;;;5066784;28;20045;-78
2022/03/01 08:22:03;;;;;;;17.20;8.35;;;4.40;98.90;;;;;;5017972;28;20057;-78
2022/03/01 08:24:29;;;;;;;16.75;8.82;;;4.50;98.60;;;;;;5033426;28;20041;-78
2022/03/01 08:26:55;;;;;;;17.58;8.48;;;4.50;98.40;;;;;;5033738;28;20055;-78
2022/03/01 08:29:21;;;;;;;16.20;8.60;;;4.50;98.50;;;;;;5050385;28;20110;-78
2022/03/01 08:31:47;;;;;;;18.95;7.53;;;4.50;98.60;;;;;;5066726;28;20048;-78
2022/03/01 08:34:13;;;;;;;16.35;8.20;;;4.60;98.10;;;;;;5050646;28;20055;-78
2022/03/01 08:36:39;;;;;;;18.20;7.75;;;4.60;98.30;;;;;;5065910;28;20135;-78
2022/03/01 08:39:05;;;;;;;12.68;7.13;;;4.70;98.00;;;;;;5050947;28;20131;-78
2022/03/01 08:41:31;;;;;;;16.85;8.13;;;4.70;97.60;;;;;;5049220;28;20044;-78
2022/03/01 08:43:57;;;;;;;17.65;8.13;;;4.70;97.90;;;;;;5050079;28;20047;-78
2022/03/01 08:46:23;;;;;;;14.77;8.02;;;4.10;98.00;;;;;;5033471;28;20044;-78
2022/03/01 08:48:53;;;;;;;16.67;7.95;;;4.90;97.30;;;;;;5065992;28;20320;-78
2022/03/01 08:51:22;;;;;;;14.48;8.00;;;5.00;97.70;;;;;;5051216;28;20446;-78
2022/03/01 08:53:49;;;;;;;15.00;8.13;;;5.70;97.80;;;;;;5048990;28;20044;-78
2022/03/01 08:56:15;;;;;;;15.35;7.32;;;5.30;97.60;;;;;;5050998;28;20109;-78
2022/03/01 08:58:42;;;;;;;20.73;8.02;;;5.30;97.40;;;;;;5065633;28;20055;-78
2022/03/01 09:01:08;;;;;;;16.67;8.57;;;5.50;96.20;;;;;;5033369;28;20075;-78
2022/03/01 09:03:34;;;;;;;12.90;8.68;;;4.70;96.30;;;;;;5066789;28;20491;-78
2022/03/01 09:06:00;;;;;;;15.80;8.73;;;5.60;96.30;;;;;;5065222;28;20044;-78
2022/03/01 09:08:26;;;;;;;15.90;8.70;;;6.10;96.30;;;;;;5066668;28;20041;-79
2022/03/01 09:10:51;;;;;;;19.73;7.82;;;5.90;96.30;;;;;;5065524;28;20041;-79
2022/03/01 09:13:18;;;;;;;22.55;8.70;;;6.10;95.40;;;;;;5066654;28;20048;-79
2022/03/01 09:15:43;;;;;;;21.27;7.88;;;6.30;95.00;;;;;;5065587;28;20040;-79
2022/03/01 09:18:09;;;;;;;13.00;7.82;;;6.40;94.00;;;;;;5066145;28;20074;-79
2022/03/01 09:20:35;;;;;;;14.57;8.40;;;6.50;94.00;;;;;;5049251;28;20040;-79
2022/03/01 09:23:02;;;;;;;11.82;7.35;;;6.60;93.40;;;;;;5048664;28;20072;-79
2022/03/01 09:25:29;;;;;;;13.68;8.00;;;6.70;92.10;;;;;;5066924;28;20432;-79
2022/03/01 09:27:54;;;;;;;14.60;7.82;;;6.80;91.90;;;;;;5064945;28;20055;-79
2022/03/01 09:30:21;;;;;;;14.45;7.40;;;6.80;92.00;;;;;;5066390;28;20052;-79
2022/03/01 09:32:47;;;;;;;22.08;8.55;;;6.90;91.20;;;;;;5032467;28;20032;-79
2022/03/01 09:35:13;;;;;;;15.25;8.07;;;6.90;91.00;;;;;;5065847;28;20056;-79
2022/03/01 09:37:41;;;;;;;11.63;7.07;;;6.90;90.60;;;;;;5049483;28;20332;-79
2022/03/01 09:40:09;;;;;;;14.10;8.23;;;6.90;89.50;;;;;;5066610;28;20131;-79
2022/03/01 09:42:35;;;;;;;19.50;7.80;;;6.90;89.10;;;;;;5049997;28;20044;-79
2022/03/01 09:45:01;;;;;;;31.38;8.02;;;6.80;87.90;;;;;;5031435;28;20033;-79
2022/03/01 09:47:27;;;;;;;14.48;7.32;;;6.90;88.60;;;;;;5066514;28;20113;-79
2022/03/01 09:49:53;;;;;;;16.25;7.78;;;6.80;88.50;;;;;;5064381;28;20385;-79
2022/03/01 09:52:19;;;;;;;16.98;8.43;;;6.80;86.80;;;;;;5065521;28;20053;-79
2022/03/01 09:54:48;;;;;;;15.73;8.10;;;7.40;88.00;;;;;;5066730;28;20526;-79
2022/03/01 09:57:15;;;;;;;17.45;8.43;;;6.80;86.80;;;;;;5064971;28;20053;-79
2022/03/01 09:59:42;;;;;;;15.45;8.15;;;6.90;84.10;;;;;;5049166;28;20051;-79
2022/03/01 10:02:08;;;;;;;19.75;7.82;;;7.50;85.80;;;;;;5066002;28;20062;-79
2022/03/01 10:04:49;;;;;;;15.23;8.05;;;6.90;86.20;;;;;;5049550;28;20045;-78
2022/03/01 10:07:24;;;;;;;14.20;8.30;;;7.10;84.70;;;;;;5064759;28;20105;-78
2022/03/01 10:09:50;;;;;;;15.35;8.75;;;7.20;84.50;;;;;;5066322;28;20119;-78
2022/03/01 10:12:27;;;;;;;14.00;8.07;;;8.00;85.90;;;;;;5066738;28;20044;-77
2022/03/01 10:15:06;;;;;;;14.57;8.15;;;7.60;80.20;;;;;;5065382;28;20056;-77
2022/03/01 10:17:44;;;;;;;13.13;8.18;;;7.70;76.20;;;;;;5048914;28;20507;-78
2022/03/01 10:20:15;;;;;;;18.40;8.18;;;7.80;78.00;;;;;;5066119;28;20044;-78
2022/03/01 10:22:45;;;;;;;20.45;8.40;;;8.00;79.60;;;;;;5066315;28;20042;-77
2022/03/01 10:25:13;;;;;;;12.20;8.10;;;8.20;78.00;;;;;;5065693;28;20132;-77
2022/03/01 10:27:39;;;;;;;16.40;7.78;;;8.40;78.20;;;;;;5065422;28;20064;-77
2022/03/01 10:30:06;;;;;;;16.45;8.70;;;8.60;77.30;;;;;;5065505;28;20070;-77
2022/03/01 10:32:33;;;;;;;13.43;8.07;;;8.80;75.20;;;;;;5063851;28;20055;-77
2022/03/01 10:35:08;;;;;;;16.98;8.63;;;9.60;74.90;;;;;;5064666;28;20048;-77
2022/03/01 10:37:36;;;;;;;17.15;8.00;;;9.00;71.80;;;;;;5065126;28;20499;-77
2022/03/01 10:40:35;;;;;;;14.45;8.95;;;9.10;73.20;;;;;;5063927;28;20041;-77
2022/03/01 10:43:10;;;;;;;20.98;8.55;;;9.10;67.70;;;;;;5037253;28;20106;-77
2022/03/01 10:45:48;;;;;;;15.45;8.55;;;9.90;71.90;;;;;;5064320;28;20453;-77
2022/03/01 10:48:34;;;;;;;15.60;8.20;;;9.00;70.80;;;;;;5065999;28;20055;-77
2022/03/01 10:51:08;;;;;;;13.38;8.00;;;9.00;70.90;;;;;;5065297;28;20043;-77
2022/03/01 10:53:47;;;;;;;15.48;8.32;;;9.00;72.30;;;;;;5065110;28;20048;-78
2022/03/01 10:56:15;;;;;;;16.17;8.70;;;9.90;72.10;;;;;;5048617;28;20548;-77
2022/03/01 10:58:43;;;;;;;15.40;8.45;;;9.10;72.80;;;;;;5064155;28;20040;-77
2022/03/01 11:01:10;;;;;;;16.08;8.80;;;9.10;72.50;;;;;;5064239;28;20145;-77
2022/03/01 11:03:37;;;;;;;16.48;8.02;;;9.00;72.00;;;;;;5031732;28;20044;-77
2022/03/01 11:06:05;;;;;;;13.93;7.78;;;9.00;71.80;;;;;;5063866;28;20056;-77
2022/03/01 11:08:36;;;;;;;15.93;7.80;;;9.50;72.30;;;;;;5048989;28;20051;-77
2022/03/01 11:11:05;;;;;;;11.60;8.07;;;8.90;71.00;;;;;;5063337;28;20095;-77
2022/03/01 11:13:34;;;;;;;13.40;7.72;;;9.00;71.40;;;;;;5066371;28;20072;-77
2022/03/01 11:16:24;;;;;;;16.20;8.52;;;8.80;72.20;;;;;;5064378;28;20115;-77
2022/03/01 11:19:12;;;;;;;16.90;8.57;;;8.80;69.20;;;;;;5043983;28;20051;-77
2022/03/01 11:21:44;;;;;;;19.85;8.98;;;8.70;70.80;;;;;;5065280;28;20071;-77
2022/03/01 11:24:14;;;;;;;11.88;8.07;;;8.80;72.30;;;;;;5065747;28;20040;-77
2022/03/01 11:26:40;;;;;;;15.60;8.93;;;8.80;72.10;;;;;;5065824;28;20046;-77
2022/03/01 11:29:14;;;;;;;14.20;8.45;;;8.80;71.80;;;;;;5066950;28;20123;-77
2022/03/01 11:31:41;;;;;;;14.13;7.80;;;8.80;71.00;;;;;;5068011;28;20107;-77
2022/03/01 11:34:11;;;;;;;14.07;8.70;;;8.80;71.70;;;;;;5068886;28;20049;-77
2022/03/01 11:36:37;;;;;;;16.63;9.52;;;8.80;71.60;;;;;;5067005;28;20055;-77
2022/03/01 11:39:13;;;;;;;14.20;8.15;;;8.90;71.10;;;;;;5051483;28;20060;-78
2022/03/01 11:41:43;;;;;;;13.90;8.13;;;8.90;70.40;;;;;;5068190;28;20129;-77
2022/03/01 11:44:10;;;;;;;14.15;7.78;;;9.00;71.50;;;;;;5051522;28;20071;-78
2022/03/01 11:46:41;;;;;;;14.85;8.27;;;9.00;70.80;;;;;;5068359;28;20087;-77
2022/03/01 11:49:07;;;;;;;17.70;8.60;;;9.10;70.80;;;;;;5050578;28;20071;-77
2022/03/01 11:51:46;;;;;;;14.13;8.05;;;9.10;70.50;;;;;;5051640;28;20499;-77
2022/03/01 11:54:16;;;;;;;12.77;8.18;;;9.10;70.40;;;;;;5066980;28;20052;-77
2022/03/01 11:56:42;;;;;;;13.00;8.82;;;9.90;71.00;;;;;;5067916;28;20047;-77
2022/03/01 11:59:12;;;;;;;18.77;9.15;;;9.20;70.30;;;;;;5067702;28;20489;-77
2022/03/01 12:01:38;;;;;;;14.98;8.70;;;9.10;70.10;;;;;;5067313;28;20123;-77
2022/03/01 12:04:07;;;;;;;21.08;9.32;;;9.10;70.40;;;;;;5051462;28;20128;-77
2022/03/01 12:06:35;;;;;;;16.27;8.98;;;9.00;70.50;;;;;;5049729;28;20045;-77
2022/03/01 12:09:05;;;;;;;14.73;8.82;;;9.00;71.10;;;;;;5051274;28;20044;-77
2022/03/01 12:11:40;;;;;;;14.18;8.38;;;8.90;71.30;;;;;;5067093;28;20041;-77
2022/03/01 12:14:16;;;;;;;14.77;8.23;;;8.90;71.40;;;;;;5050110;28;20515;-77
2022/03/01 12:16:41;;;;;;;15.00;8.73;;;8.90;70.60;;;;;;5051163;28;20048;-77
2022/03/01 12:19:10;;;;;;;22.05;8.93;;;8.90;71.10;;;;;;5049903;28;20045;-77
2022/03/01 12:21:37;;;;;;;15.15;9.18;;;8.90;71.10;;;;;;5068274;28;20056;-77
2022/03/01 12:24:04;;;;;;;15.05;9.88;;;8.90;71.00;;;;;;5066263;28;20503;-78
2022/03/01 12:26:30;;;;;;;16.27;8.65;;;8.80;70.50;;;;;;5067457;28;20051;-77
2022/03/01 12:28:59;;;;;;;14.15;9.38;;;8.80;70.50;;;;;;5067396;28;20412;-77
2022/03/01 12:31:27;;;;;;;18.65;9.68;;;8.70;71.00;;;;;;5050081;28;20048;-77
2022/03/01 12:34:00;;;;;;;21.20;9.02;;;8.70;71.40;;;;;;5051300;28;20040;-77
2022/03/01 12:36:30;;;;;;;16.77;9.52;;;8.70;71.50;;;;;;5066066;28;20088;-77
2022/03/01 12:39:16;;;;;;;17.00;9.02;;;8.70;72.70;;;;;;5067128;28;20048;-77
2022/03/01 12:41:44;;;;;;;15.52;9.27;;;9.40;72.00;;;;;;5066368;28;20049;-77
2022/03/01 12:44:12;;;;;;;16.92;9.10;;;9.40;72.50;;;;;;5066153;28;20049;-77
2022/03/01 12:46:40;;;;;;;14.35;9.05;;;8.90;72.20;;;;;;5067904;28;20048;-77
2022/03/01 12:49:09;;;;;;;21.63;9.52;;;9.00;72.40;;;;;;5065777;28;20048;-77
2022/03/01 12:51:35;;;;;;;16.92;8.93;;;10.30;72.90;;;;;;5067296;28;20045;-77